sensor_id;sensor_type;location;lat;lon;timestamp;pressure;altitude;pressure_sealevel;temperature;humidity
14067;BME280;7108;42.684;23.350;2022-07-01T00:01:30;95265.53;;;23.61;77.63
14067;BME280;7108;42.684;23.350;2022-07-01T00:03:55;95252.31;;;23.56;76.66
14067;BME280;7108;42.684;23.350;2022-07-01T00:06:22;95265.75;;;23.67;78.43
14067;BME280;7108;42.684;23.350;2022-07-01T00:08:47;95268.75;;;23.72;80.15
14067;BME280;7108;42.684;23.350;2022-07-01T00:11:13;95263.09;;;23.63;77.08
14067;BME280;7108;42.684;23.350;2022-07-01T00:13:39;95266.72;;;23.60;77.73
14067;BME280;7108;42.684;23.350;2022-07-01T00:16:05;95258.47;;;23.48;77.42
14067;BME280;7108;42.684;23.350;2022-07-01T00:18:30;95280.94;;;23.59;78.46
14067;BME280;7108;42.684;23.350;2022-07-01T00:20:56;95280.63;;;23.57;77.51
14067;BME280;7108;42.684;23.350;2022-07-01T00:23:22;95286.53;;;23.55;77.48
14067;BME280;7108;42.684;23.350;2022-07-01T00:25:47;95266.03;;;23.31;78.30
14067;BME280;7108;42.684;23.350;2022-07-01T00:28:13;95282.09;;;23.33;78.79
14067;BME280;7108;42.684;23.350;2022-07-01T00:30:38;95295.41;;;23.34;80.68
14067;BME280;7108;42.684;23.350;2022-07-01T00:33:04;95292.13;;;23.39;80.95
14067;BME280;7108;42.684;23.350;2022-07-01T00:35:30;95282.53;;;23.31;80.77
14067;BME280;7108;42.684;23.350;2022-07-01T00:37:56;95278.25;;;23.30;80.68
14067;BME280;7108;42.684;23.350;2022-07-01T00:40:23;95283.19;;;23.23;80.24
14067;BME280;7108;42.684;23.350;2022-07-01T00:42:48;95294.53;;;23.25;83.08
14067;BME280;7108;42.684;23.350;2022-07-01T00:45:13;95270.59;;;23.10;81.24
14067;BME280;7108;42.684;23.350;2022-07-01T00:47:41;95291.63;;;23.16;83.92
14067;BME280;7108;42.684;23.350;2022-07-01T00:50:07;95293.63;;;23.15;84.61
14067;BME280;7108;42.684;23.350;2022-07-01T00:52:33;95292.84;;;23.15;83.24
14067;BME280;7108;42.684;23.350;2022-07-01T00:55:02;95286.56;;;23.14;85.74
14067;BME280;7108;42.684;23.350;2022-07-01T00:57:33;95292.41;;;23.16;86.04
14067;BME280;7108;42.684;23.350;2022-07-01T01:00:01;95291.84;;;23.09;86.03
14067;BME280;7108;42.684;23.350;2022-07-01T01:02:26;95301.84;;;23.15;84.38
14067;BME280;7108;42.684;23.350;2022-07-01T01:04:52;95300.31;;;23.14;83.88
14067;BME280;7108;42.684;23.350;2022-07-01T01:07:17;95286.56;;;23.14;83.85
14067;BME280;7108;42.684;23.350;2022-07-01T01:09:43;95299.38;;;23.05;86.61
14067;BME280;7108;42.684;23.350;2022-07-01T01:12:10;95291.69;;;23.00;87.09
14067;BME280;7108;42.684;23.350;2022-07-01T01:14:47;95300.03;;;22.97;87.81
14067;BME280;7108;42.684;23.350;2022-07-01T01:17:14;95294.00;;;23.02;88.71
14067;BME280;7108;42.684;23.350;2022-07-01T01:19:41;95305.75;;;22.74;92.16
14067;BME280;7108;42.684;23.350;2022-07-01T01:22:07;95290.44;;;22.73;92.84
14067;BME280;7108;42.684;23.350;2022-07-01T01:24:32;95274.94;;;22.66;92.99
14067;BME280;7108;42.684;23.350;2022-07-01T01:26:58;95284.50;;;22.74;92.32
14067;BME280;7108;42.684;23.350;2022-07-01T01:29:23;95293.56;;;22.75;92.48
14067;BME280;7108;42.684;23.350;2022-07-01T01:31:49;95297.63;;;22.83;94.10
14067;BME280;7108;42.684;23.350;2022-07-01T01:34:14;95306.31;;;22.81;95.20
14067;BME280;7108;42.684;23.350;2022-07-01T01:36:40;95306.94;;;22.73;97.12
14067;BME280;7108;42.684;23.350;2022-07-01T01:39:06;95305.38;;;22.72;97.20
14067;BME280;7108;42.684;23.350;2022-07-01T01:41:34;95302.94;;;22.61;96.44
14067;BME280;7108;42.684;23.350;2022-07-01T01:43:59;95310.75;;;22.63;96.78
14067;BME280;7108;42.684;23.350;2022-07-01T01:46:25;95312.38;;;22.60;96.27
14067;BME280;7108;42.684;23.350;2022-07-01T01:48:50;95317.78;;;22.64;96.95
14067;BME280;7108;42.684;23.350;2022-07-01T01:51:16;95298.94;;;22.50;99.49
14067;BME280;7108;42.684;23.350;2022-07-01T01:53:44;95300.38;;;22.39;100.00
14067;BME280;7108;42.684;23.350;2022-07-01T01:56:09;95299.84;;;22.43;100.00
14067;BME280;7108;42.684;23.350;2022-07-01T01:58:35;95292.56;;;22.37;100.00
14067;BME280;7108;42.684;23.350;2022-07-01T02:01:00;95312.66;;;22.34;100.00
14067;BME280;7108;42.684;23.350;2022-07-01T02:03:27;95301.47;;;22.25;100.00
14067;BME280;7108;42.684;23.350;2022-07-01T02:05:53;95315.94;;;22.29;100.00
14067;BME280;7108;42.684;23.350;2022-07-01T02:08:19;95306.28;;;22.21;100.00
14067;BME280;7108;42.684;23.350;2022-07-01T02:10:45;95314.09;;;22.23;100.00
14067;BME280;7108;42.684;23.350;2022-07-01T02:13:10;95314.19;;;22.19;100.00
14067;BME280;7108;42.684;23.350;2022-07-01T02:15:36;95324.47;;;22.15;100.00
14067;BME280;7108;42.684;23.350;2022-07-01T02:18:01;95328.75;;;22.16;100.00
14067;BME280;7108;42.684;23.350;2022-07-01T02:20:27;95332.38;;;22.13;100.00
14067;BME280;7108;42.684;23.350;2022-07-01T02:22:52;95339.81;;;22.13;100.00
14067;BME280;7108;42.684;23.350;2022-07-01T02:25:18;95334.31;;;22.13;100.00
14067;BME280;7108;42.684;23.350;2022-07-01T02:27:44;95334.59;;;22.02;100.00
14067;BME280;7108;42.684;23.350;2022-07-01T02:30:10;95339.03;;;21.96;100.00
14067;BME280;7108;42.684;23.350;2022-07-01T02:32:35;95336.22;;;22.00;100.00
14067;BME280;7108;42.684;23.350;2022-07-01T02:35:01;95328.06;;;21.96;100.00
14067;BME280;7108;42.684;23.350;2022-07-01T02:37:27;95330.09;;;21.77;100.00
14067;BME280;7108;42.684;23.350;2022-07-01T02:39:53;95353.22;;;21.76;100.00
14067;BME280;7108;42.684;23.350;2022-07-01T02:42:18;95345.44;;;21.74;100.00
14067;BME280;7108;42.684;23.350;2022-07-01T02:44:52;95340.84;;;21.68;100.00
14067;BME280;7108;42.684;23.350;2022-07-01T02:47:19;95338.47;;;21.70;100.00
14067;BME280;7108;42.684;23.350;2022-07-01T02:49:44;95359.78;;;21.81;100.00
14067;BME280;7108;42.684;23.350;2022-07-01T02:52:10;95352.63;;;21.68;100.00
14067;BME280;7108;42.684;23.350;2022-07-01T02:54:35;95361.91;;;21.74;100.00
14067;BME280;7108;42.684;23.350;2022-07-01T02:57:01;95338.53;;;21.66;100.00
14067;BME280;7108;42.684;23.350;2022-07-01T02:59:26;95351.34;;;21.73;100.00
14067;BME280;7108;42.684;23.350;2022-07-01T03:01:52;95365.47;;;21.71;100.00
14067;BME280;7108;42.684;23.350;2022-07-01T03:04:17;95373.69;;;21.71;100.00
14067;BME280;7108;42.684;23.350;2022-07-01T03:06:44;95367.53;;;21.67;100.00
14067;BME280;7108;42.684;23.350;2022-07-01T03:09:09;95355.66;;;21.54;100.00
14067;BME280;7108;42.684;23.350;2022-07-01T03:11:34;95367.25;;;21.62;100.00
14067;BME280;7108;42.684;23.350;2022-07-01T03:14:00;95375.50;;;21.62;100.00
14067;BME280;7108;42.684;23.350;2022-07-01T03:16:25;95391.53;;;21.63;100.00
14067;BME280;7108;42.684;23.350;2022-07-01T03:18:51;95395.00;;;21.44;100.00
14067;BME280;7108;42.684;23.350;2022-07-01T03:21:16;95391.22;;;21.38;100.00
14067;BME280;7108;42.684;23.350;2022-07-01T03:23:42;95367.03;;;21.33;100.00
14067;BME280;7108;42.684;23.350;2022-07-01T03:26:07;95371.75;;;21.33;100.00
14067;BME280;7108;42.684;23.350;2022-07-01T03:28:32;95372.44;;;21.37;100.00
14067;BME280;7108;42.684;23.350;2022-07-01T03:31:00;95394.94;;;21.48;100.00
14067;BME280;7108;42.684;23.350;2022-07-01T03:33:26;95389.44;;;21.48;100.00
14067;BME280;7108;42.684;23.350;2022-07-01T03:35:51;95386.38;;;21.46;100.00
14067;BME280;7108;42.684;23.350;2022-07-01T03:38:16;95383.91;;;21.51;100.00
14067;BME280;7108;42.684;23.350;2022-07-01T03:40:42;95384.72;;;21.52;100.00
14067;BME280;7108;42.684;23.350;2022-07-01T03:43:10;95384.06;;;21.64;100.00
14067;BME280;7108;42.684;23.350;2022-07-01T03:45:35;95384.47;;;21.62;100.00
14067;BME280;7108;42.684;23.350;2022-07-01T03:48:01;95383.28;;;21.63;100.00
14067;BME280;7108;42.684;23.350;2022-07-01T03:50:28;95381.31;;;21.64;100.00
14067;BME280;7108;42.684;23.350;2022-07-01T03:52:53;95387.09;;;21.69;100.00
14067;BME280;7108;42.684;23.350;2022-07-01T03:55:37;95380.88;;;21.65;100.00
14067;BME280;7108;42.684;23.350;2022-07-01T03:58:03;95388.81;;;21.79;100.00
14067;BME280;7108;42.684;23.350;2022-07-01T04:00:34;95379.47;;;21.77;100.00
14067;BME280;7108;42.684;23.350;2022-07-01T04:03:01;95387.34;;;21.75;100.00
14067;BME280;7108;42.684;23.350;2022-07-01T04:05:27;95378.00;;;21.72;100.00
14067;BME280;7108;42.684;23.350;2022-07-01T04:07:52;95389.66;;;21.76;100.00
14067;BME280;7108;42.684;23.350;2022-07-01T04:10:18;95396.13;;;21.85;100.00
14067;BME280;7108;42.684;23.350;2022-07-01T04:12:43;95397.69;;;21.86;100.00
14067;BME280;7108;42.684;23.350;2022-07-01T04:15:10;95397.59;;;21.90;100.00
14067;BME280;7108;42.684;23.350;2022-07-01T04:17:36;95402.91;;;21.97;100.00
14067;BME280;7108;42.684;23.350;2022-07-01T04:20:01;95400.19;;;21.97;100.00
14067;BME280;7108;42.684;23.350;2022-07-01T04:22:27;95408.34;;;22.00;100.00
14067;BME280;7108;42.684;23.350;2022-07-01T04:24:59;95388.88;;;21.95;100.00
14067;BME280;7108;42.684;23.350;2022-07-01T04:27:26;95393.50;;;21.98;100.00
14067;BME280;7108;42.684;23.350;2022-07-01T04:29:51;95398.16;;;22.01;100.00
14067;BME280;7108;42.684;23.350;2022-07-01T04:32:17;95399.78;;;22.14;100.00
14067;BME280;7108;42.684;23.350;2022-07-01T04:34:42;95396.78;;;22.09;100.00
14067;BME280;7108;42.684;23.350;2022-07-01T04:37:08;95389.31;;;22.09;100.00
14067;BME280;7108;42.684;23.350;2022-07-01T04:39:33;95403.00;;;22.29;100.00
14067;BME280;7108;42.684;23.350;2022-07-01T04:41:58;95392.81;;;22.29;100.00
14067;BME280;7108;42.684;23.350;2022-07-01T04:44:24;95402.94;;;22.32;100.00
14067;BME280;7108;42.684;23.350;2022-07-01T04:46:50;95391.66;;;22.27;100.00
14067;BME280;7108;42.684;23.350;2022-07-01T04:49:15;95400.03;;;22.39;100.00
14067;BME280;7108;42.684;23.350;2022-07-01T04:51:41;95408.59;;;22.41;100.00
14067;BME280;7108;42.684;23.350;2022-07-01T04:54:06;95402.25;;;22.44;100.00
14067;BME280;7108;42.684;23.350;2022-07-01T04:56:33;95406.88;;;22.47;100.00
14067;BME280;7108;42.684;23.350;2022-07-01T04:58:59;95401.38;;;22.47;100.00
14067;BME280;7108;42.684;23.350;2022-07-01T05:01:25;95398.13;;;22.52;100.00
14067;BME280;7108;42.684;23.350;2022-07-01T05:03:51;95402.16;;;22.63;100.00
14067;BME280;7108;42.684;23.350;2022-07-01T05:06:17;95404.41;;;22.68;100.00
14067;BME280;7108;42.684;23.350;2022-07-01T05:08:42;95399.59;;;22.72;100.00
14067;BME280;7108;42.684;23.350;2022-07-01T05:11:08;95401.13;;;22.73;100.00
14067;BME280;7108;42.684;23.350;2022-07-01T05:13:33;95403.00;;;22.76;100.00
14067;BME280;7108;42.684;23.350;2022-07-01T05:15:59;95393.91;;;22.79;100.00
14067;BME280;7108;42.684;23.350;2022-07-01T05:18:25;95402.25;;;22.76;100.00
14067;BME280;7108;42.684;23.350;2022-07-01T05:21:11;95404.13;;;22.79;100.00
14067;BME280;7108;42.684;23.350;2022-07-01T05:24:12;95386.97;;;22.75;100.00
14067;BME280;7108;42.684;23.350;2022-07-01T05:26:38;95404.28;;;22.88;100.00
14067;BME280;7108;42.684;23.350;2022-07-01T05:29:03;95405.00;;;22.92;100.00
14067;BME280;7108;42.684;23.350;2022-07-01T05:31:29;95390.03;;;22.93;100.00
14067;BME280;7108;42.684;23.350;2022-07-01T05:33:54;95392.44;;;22.91;100.00
14067;BME280;7108;42.684;23.350;2022-07-01T05:36:20;95396.47;;;23.02;100.00
14067;BME280;7108;42.684;23.350;2022-07-01T05:38:46;95405.94;;;23.01;100.00
14067;BME280;7108;42.684;23.350;2022-07-01T05:41:12;95405.31;;;23.10;100.00
14067;BME280;7108;42.684;23.350;2022-07-01T05:43:37;95381.25;;;22.98;100.00
14067;BME280;7108;42.684;23.350;2022-07-01T05:46:03;95399.63;;;23.16;100.00
14067;BME280;7108;42.684;23.350;2022-07-01T05:48:28;95394.59;;;23.15;100.00
14067;BME280;7108;42.684;23.350;2022-07-01T05:50:54;95392.59;;;23.15;100.00
14067;BME280;7108;42.684;23.350;2022-07-01T05:53:20;95404.09;;;23.26;100.00
14067;BME280;7108;42.684;23.350;2022-07-01T05:55:45;95405.84;;;23.33;100.00
14067;BME280;7108;42.684;23.350;2022-07-01T05:58:11;95398.81;;;23.32;100.00
14067;BME280;7108;42.684;23.350;2022-07-01T06:00:38;95407.44;;;23.46;100.00
14067;BME280;7108;42.684;23.350;2022-07-01T06:03:07;95394.69;;;23.40;100.00
14067;BME280;7108;42.684;23.350;2022-07-01T06:05:32;95394.47;;;23.47;100.00
14067;BME280;7108;42.684;23.350;2022-07-01T06:07:58;95391.28;;;23.48;100.00
14067;BME280;7108;42.684;23.350;2022-07-01T06:10:23;95410.91;;;23.63;100.00
14067;BME280;7108;42.684;23.350;2022-07-01T06:12:48;95405.31;;;23.66;100.00
14067;BME280;7108;42.684;23.350;2022-07-01T06:15:14;95407.44;;;23.75;100.00
14067;BME280;7108;42.684;23.350;2022-07-01T06:17:40;95401.34;;;23.67;99.89
14067;BME280;7108;42.684;23.350;2022-07-01T06:20:07;95398.44;;;23.74;99.83
14067;BME280;7108;42.684;23.350;2022-07-01T06:22:33;95388.31;;;23.55;99.53
14067;BME280;7108;42.684;23.350;2022-07-01T06:24:59;95410.31;;;23.83;98.49
14067;BME280;7108;42.684;23.350;2022-07-01T06:27:25;95414.44;;;23.91;98.62
14067;BME280;7108;42.684;23.350;2022-07-01T06:29:50;95404.97;;;23.92;98.55
14067;BME280;7108;42.684;23.350;2022-07-01T06:32:16;95413.44;;;23.98;97.97
14067;BME280;7108;42.684;23.350;2022-07-01T06:34:42;95414.66;;;24.09;97.35
14067;BME280;7108;42.684;23.350;2022-07-01T06:37:07;95403.78;;;24.06;95.69
14067;BME280;7108;42.684;23.350;2022-07-01T06:39:33;95410.38;;;24.08;94.68
14067;BME280;7108;42.684;23.350;2022-07-01T06:41:58;95388.78;;;24.07;94.09
14067;BME280;7108;42.684;23.350;2022-07-01T06:44:24;95411.25;;;24.18;94.81
14067;BME280;7108;42.684;23.350;2022-07-01T06:46:49;95411.91;;;24.22;93.24
14067;BME280;7108;42.684;23.350;2022-07-01T06:49:14;95397.03;;;24.19;92.70
14067;BME280;7108;42.684;23.350;2022-07-01T06:51:40;95408.41;;;24.34;91.23
14067;BME280;7108;42.684;23.350;2022-07-01T06:54:06;95397.19;;;24.28;91.09
14067;BME280;7108;42.684;23.350;2022-07-01T06:56:31;95386.16;;;24.28;92.18
14067;BME280;7108;42.684;23.350;2022-07-01T06:58:57;95405.34;;;24.44;89.68
14067;BME280;7108;42.684;23.350;2022-07-01T07:01:23;95408.66;;;24.51;89.79
14067;BME280;7108;42.684;23.350;2022-07-01T07:03:49;95395.06;;;24.32;91.31
14067;BME280;7108;42.684;23.350;2022-07-01T07:06:15;95406.66;;;24.52;89.74
14067;BME280;7108;42.684;23.350;2022-07-01T07:08:40;95408.00;;;24.60;90.10
14067;BME280;7108;42.684;23.350;2022-07-01T07:11:06;95402.25;;;24.54;88.78
14067;BME280;7108;42.684;23.350;2022-07-01T07:13:34;95412.97;;;24.52;89.32
14067;BME280;7108;42.684;23.350;2022-07-01T07:16:00;95407.53;;;24.61;91.20
14067;BME280;7108;42.684;23.350;2022-07-01T07:18:25;95402.34;;;24.63;89.37
14067;BME280;7108;42.684;23.350;2022-07-01T07:20:50;95404.53;;;24.68;87.25
14067;BME280;7108;42.684;23.350;2022-07-01T07:23:16;95412.03;;;24.80;86.18
14067;BME280;7108;42.684;23.350;2022-07-01T07:25:41;95405.50;;;24.87;86.48
14067;BME280;7108;42.684;23.350;2022-07-01T07:28:07;95405.38;;;24.90;85.83
14067;BME280;7108;42.684;23.350;2022-07-01T07:30:32;95403.44;;;24.78;85.22
14067;BME280;7108;42.684;23.350;2022-07-01T07:32:58;95403.56;;;24.75;86.97
14067;BME280;7108;42.684;23.350;2022-07-01T07:35:23;95411.56;;;24.82;87.28
14067;BME280;7108;42.684;23.350;2022-07-01T07:37:49;95404.53;;;24.93;87.80
14067;BME280;7108;42.684;23.350;2022-07-01T07:40:14;95387.97;;;24.93;87.93
14067;BME280;7108;42.684;23.350;2022-07-01T07:42:45;95398.75;;;25.13;86.05
14067;BME280;7108;42.684;23.350;2022-07-01T07:45:11;95393.31;;;25.21;82.74
14067;BME280;7108;42.684;23.350;2022-07-01T07:47:42;95400.00;;;25.33;81.82
14067;BME280;7108;42.684;23.350;2022-07-01T07:50:08;95387.63;;;25.37;79.63
14067;BME280;7108;42.684;23.350;2022-07-01T07:52:34;95387.06;;;25.42;78.51
14067;BME280;7108;42.684;23.350;2022-07-01T07:54:59;95396.50;;;25.54;77.02
14067;BME280;7108;42.684;23.350;2022-07-01T07:57:25;95398.88;;;25.64;76.96
14067;BME280;7108;42.684;23.350;2022-07-01T07:59:50;95392.44;;;25.67;76.71
14067;BME280;7108;42.684;23.350;2022-07-01T08:02:16;95388.94;;;25.67;72.77
14067;BME280;7108;42.684;23.350;2022-07-01T08:04:41;95394.41;;;25.79;72.93
14067;BME280;7108;42.684;23.350;2022-07-01T08:07:07;95372.22;;;25.70;72.71
14067;BME280;7108;42.684;23.350;2022-07-01T08:09:32;95385.25;;;25.91;74.18
14067;BME280;7108;42.684;23.350;2022-07-01T08:12:02;95376.38;;;25.96;80.38
14067;BME280;7108;42.684;23.350;2022-07-01T08:14:28;95375.75;;;25.92;74.02
14067;BME280;7108;42.684;23.350;2022-07-01T08:16:54;95373.03;;;26.01;74.40
14067;BME280;7108;42.684;23.350;2022-07-01T08:19:19;95356.56;;;25.88;72.26
14067;BME280;7108;42.684;23.350;2022-07-01T08:21:45;95358.47;;;26.00;72.94
14067;BME280;7108;42.684;23.350;2022-07-01T08:24:10;95374.06;;;26.16;73.92
14067;BME280;7108;42.684;23.350;2022-07-01T08:26:36;95358.56;;;26.18;73.88
14067;BME280;7108;42.684;23.350;2022-07-01T08:29:01;95359.94;;;26.23;73.21
14067;BME280;7108;42.684;23.350;2022-07-01T08:31:27;95357.97;;;26.23;69.50
14067;BME280;7108;42.684;23.350;2022-07-01T08:33:52;95363.41;;;26.36;71.61
14067;BME280;7108;42.684;23.350;2022-07-01T08:36:17;95374.03;;;26.46;70.37
14067;BME280;7108;42.684;23.350;2022-07-01T08:38:43;95373.91;;;26.58;70.34
14067;BME280;7108;42.684;23.350;2022-07-01T08:41:08;95365.63;;;26.58;69.10
14067;BME280;7108;42.684;23.350;2022-07-01T08:43:34;95366.28;;;26.62;73.78
14067;BME280;7108;42.684;23.350;2022-07-01T08:46:01;95356.59;;;26.76;70.73
14067;BME280;7108;42.684;23.350;2022-07-01T08:48:28;95350.16;;;26.79;67.41
14067;BME280;7108;42.684;23.350;2022-07-01T08:50:54;95356.66;;;26.94;68.71
14067;BME280;7108;42.684;23.350;2022-07-01T08:53:19;95343.13;;;26.96;68.20
14067;BME280;7108;42.684;23.350;2022-07-01T08:55:45;95346.22;;;26.98;64.55
14067;BME280;7108;42.684;23.350;2022-07-01T08:58:29;95359.91;;;27.10;61.39
14067;BME280;7108;42.684;23.350;2022-07-01T09:01:20;95357.63;;;27.26;61.55
14067;BME280;7108;42.684;23.350;2022-07-01T09:03:47;95352.22;;;27.32;58.90
14067;BME280;7108;42.684;23.350;2022-07-01T09:06:21;95358.84;;;27.43;58.51
14067;BME280;7108;42.684;23.350;2022-07-01T09:08:48;95351.63;;;27.37;58.52
14067;BME280;7108;42.684;23.350;2022-07-01T09:11:14;95355.91;;;27.47;58.52
14067;BME280;7108;42.684;23.350;2022-07-01T09:13:41;95346.53;;;27.44;56.15
14067;BME280;7108;42.684;23.350;2022-07-01T09:16:16;95363.03;;;27.66;55.88
14067;BME280;7108;42.684;23.350;2022-07-01T09:19:02;95357.16;;;27.73;54.65
14067;BME280;7108;42.684;23.350;2022-07-01T09:21:29;95357.59;;;27.80;51.93
14067;BME280;7108;42.684;23.350;2022-07-01T09:23:56;95347.91;;;27.84;56.97
14067;BME280;7108;42.684;23.350;2022-07-01T09:26:21;95338.34;;;27.85;57.10
14067;BME280;7108;42.684;23.350;2022-07-01T09:28:54;95345.09;;;27.93;54.52
14067;BME280;7108;42.684;23.350;2022-07-01T09:31:21;95338.00;;;28.01;54.03
14067;BME280;7108;42.684;23.350;2022-07-01T09:34:02;95351.66;;;28.14;51.30
14067;BME280;7108;42.684;23.350;2022-07-01T09:36:28;95328.59;;;28.08;48.10
14067;BME280;7108;42.684;23.350;2022-07-01T09:38:54;95335.97;;;28.20;47.27
14067;BME280;7108;42.684;23.350;2022-07-01T09:41:23;95346.41;;;28.25;47.52
14067;BME280;7108;42.684;23.350;2022-07-01T09:43:48;95343.91;;;28.36;45.27
14067;BME280;7108;42.684;23.350;2022-07-01T09:46:14;95324.69;;;28.32;47.96
14067;BME280;7108;42.684;23.350;2022-07-01T09:51:06;95331.97;;;28.53;47.99
14067;BME280;7108;42.684;23.350;2022-07-01T09:53:34;95331.16;;;28.61;43.78
14067;BME280;7108;42.684;23.350;2022-07-01T09:56:00;95329.72;;;28.75;40.60
14067;BME280;7108;42.684;23.350;2022-07-01T09:58:26;95322.56;;;28.83;39.40
14067;BME280;7108;42.684;23.350;2022-07-01T10:00:54;95321.09;;;28.96;40.88
14067;BME280;7108;42.684;23.350;2022-07-01T10:03:21;95314.69;;;29.05;38.80
14067;BME280;7108;42.684;23.350;2022-07-01T10:05:51;95316.88;;;29.24;39.36
14067;BME280;7108;42.684;23.350;2022-07-01T10:13:48;95317.63;;;29.62;41.19
14067;BME280;7108;42.684;23.350;2022-07-01T10:16:13;95315.13;;;29.79;40.06
14067;BME280;7108;42.684;23.350;2022-07-01T10:18:39;95309.19;;;29.86;37.81
14067;BME280;7108;42.684;23.350;2022-07-01T10:21:05;95318.50;;;30.11;38.24
14067;BME280;7108;42.684;23.350;2022-07-01T10:23:39;95317.72;;;30.25;36.73
14067;BME280;7108;42.684;23.350;2022-07-01T10:26:05;95311.97;;;30.43;36.93
14067;BME280;7108;42.684;23.350;2022-07-01T10:31:16;95305.41;;;30.60;38.40
14067;BME280;7108;42.684;23.350;2022-07-01T10:36:16;95299.66;;;30.84;36.55
14067;BME280;7108;42.684;23.350;2022-07-01T10:41:27;95289.25;;;30.99;40.29
14067;BME280;7108;42.684;23.350;2022-07-01T10:43:54;95281.94;;;31.01;38.08
14067;BME280;7108;42.684;23.350;2022-07-01T10:49:18;95258.47;;;31.08;36.42
14067;BME280;7108;42.684;23.350;2022-07-01T10:51:51;95267.50;;;31.23;35.86
14067;BME280;7108;42.684;23.350;2022-07-01T10:59:47;95266.69;;;31.42;38.25
14067;BME280;7108;42.684;23.350;2022-07-01T11:02:17;95274.50;;;31.58;38.11
14067;BME280;7108;42.684;23.350;2022-07-01T11:04:43;95281.31;;;31.57;38.52
14067;BME280;7108;42.684;23.350;2022-07-01T11:07:09;95276.28;;;31.61;33.99
14067;BME280;7108;42.684;23.350;2022-07-01T11:09:35;95274.06;;;31.65;33.54
14067;BME280;7108;42.684;23.350;2022-07-01T11:12:01;95268.19;;;31.63;31.94
14067;BME280;7108;42.684;23.350;2022-07-01T11:14:27;95267.50;;;31.68;31.72
14067;BME280;7108;42.684;23.350;2022-07-01T11:16:54;95271.06;;;31.68;30.77
14067;BME280;7108;42.684;23.350;2022-07-01T11:19:19;95270.88;;;31.77;33.11
14067;BME280;7108;42.684;23.350;2022-07-01T11:21:51;95264.31;;;31.80;35.26
14067;BME280;7108;42.684;23.350;2022-07-01T11:24:21;95264.22;;;32.00;33.29
14067;BME280;7108;42.684;23.350;2022-07-01T11:26:47;95266.25;;;31.99;30.01
14067;BME280;7108;42.684;23.350;2022-07-01T11:29:14;95258.56;;;31.89;30.30
14067;BME280;7108;42.684;23.350;2022-07-01T11:31:41;95253.22;;;31.86;31.68
14067;BME280;7108;42.684;23.350;2022-07-01T11:34:06;95256.09;;;31.96;31.55
14067;BME280;7108;42.684;23.350;2022-07-01T11:36:33;95259.69;;;32.02;29.55
14067;BME280;7108;42.684;23.350;2022-07-01T11:39:20;95257.72;;;32.08;28.75
14067;BME280;7108;42.684;23.350;2022-07-01T11:41:56;95241.81;;;32.14;30.75
14067;BME280;7108;42.684;23.350;2022-07-01T11:44:42;95241.13;;;32.25;31.58
14067;BME280;7108;42.684;23.350;2022-07-01T11:47:10;95236.38;;;32.36;30.53
14067;BME280;7108;42.684;23.350;2022-07-01T11:49:47;95236.09;;;32.34;30.62
14067;BME280;7108;42.684;23.350;2022-07-01T11:52:13;95238.94;;;32.40;30.61
14067;BME280;7108;42.684;23.350;2022-07-01T11:54:39;95234.63;;;32.44;32.01
14067;BME280;7108;42.684;23.350;2022-07-01T11:57:13;95228.00;;;32.36;31.13
14067;BME280;7108;42.684;23.350;2022-07-01T11:59:41;95221.91;;;32.32;31.78
14067;BME280;7108;42.684;23.350;2022-07-01T12:02:09;95236.06;;;32.29;32.37
14067;BME280;7108;42.684;23.350;2022-07-01T12:04:36;95239.84;;;31.95;32.61
14067;BME280;7108;42.684;23.350;2022-07-01T12:07:03;95222.00;;;31.82;30.92
14067;BME280;7108;42.684;23.350;2022-07-01T12:09:29;95211.25;;;31.69;29.92
14067;BME280;7108;42.684;23.350;2022-07-01T12:11:54;95215.88;;;31.78;29.09
14067;BME280;7108;42.684;23.350;2022-07-01T12:16:55;95216.50;;;31.62;30.77
14067;BME280;7108;42.684;23.350;2022-07-01T12:19:30;95224.53;;;31.54;29.84
14067;BME280;7108;42.684;23.350;2022-07-01T12:22:09;95217.34;;;31.42;30.10
14067;BME280;7108;42.684;23.350;2022-07-01T12:24:35;95217.69;;;31.30;29.45
14067;BME280;7108;42.684;23.350;2022-07-01T12:27:01;95220.38;;;31.19;29.61
14067;BME280;7108;42.684;23.350;2022-07-01T12:29:30;95204.19;;;30.98;29.29
14067;BME280;7108;42.684;23.350;2022-07-01T12:32:05;95224.47;;;30.98;29.99
14067;BME280;7108;42.684;23.350;2022-07-01T12:34:45;95221.97;;;30.86;30.64
14067;BME280;7108;42.684;23.350;2022-07-01T12:39:45;95200.75;;;30.68;28.01
14067;BME280;7108;42.684;23.350;2022-07-01T12:45:09;95201.13;;;30.96;30.39
14067;BME280;7108;42.684;23.350;2022-07-01T12:52:39;95196.06;;;31.20;32.06
14067;BME280;7108;42.684;23.350;2022-07-01T12:55:21;95193.00;;;31.18;33.82
14067;BME280;7108;42.684;23.350;2022-07-01T12:57:51;95183.13;;;31.17;35.57
14067;BME280;7108;42.684;23.350;2022-07-01T13:00:18;95206.34;;;31.33;37.19
14067;BME280;7108;42.684;23.350;2022-07-01T13:02:44;95205.38;;;31.36;38.66
14067;BME280;7108;42.684;23.350;2022-07-01T13:05:10;95208.16;;;31.36;39.97
14067;BME280;7108;42.684;23.350;2022-07-01T13:07:36;95193.22;;;31.14;38.89
14067;BME280;7108;42.684;23.350;2022-07-01T13:10:02;95194.16;;;31.06;39.13
14067;BME280;7108;42.684;23.350;2022-07-01T13:12:29;95200.16;;;30.99;37.59
14067;BME280;7108;42.684;23.350;2022-07-01T13:14:55;95186.56;;;30.86;37.13
14067;BME280;7108;42.684;23.350;2022-07-01T13:17:23;95207.59;;;30.87;36.65
14067;BME280;7108;42.684;23.350;2022-07-01T13:19:49;95203.53;;;30.88;36.98
14067;BME280;7108;42.684;23.350;2022-07-01T13:22:14;95191.84;;;30.84;37.47
14067;BME280;7108;42.684;23.350;2022-07-01T13:24:40;95194.63;;;30.84;36.89
14067;BME280;7108;42.684;23.350;2022-07-01T13:27:06;95188.81;;;30.82;37.72
14067;BME280;7108;42.684;23.350;2022-07-01T13:29:34;95187.78;;;30.80;38.13
14067;BME280;7108;42.684;23.350;2022-07-01T13:32:00;95190.09;;;30.87;36.65
14067;BME280;7108;42.684;23.350;2022-07-01T13:34:26;95183.50;;;30.84;36.68